sensor_id;sensor_type;location;lat;lon;timestamp;pressure;altitude;pressure_sealevel;temperature;humidity
73748;BME280;62056;52.130;5.428;2023-11-21T00:02:18;101297.59;;;7.33;91.29
73748;BME280;62056;52.130;5.428;2023-11-21T00:04:48;101294.94;;;7.33;90.37
73748;BME280;62056;52.130;5.428;2023-11-21T00:07:15;101300.47;;;7.31;89.26
73748;BME280;62056;52.130;5.428;2023-11-21T00:09:41;101301.53;;;7.30;88.19
73748;BME280;62056;52.130;5.428;2023-11-21T00:12:08;101302.56;;;7.29;87.63
73748;BME280;62056;52.130;5.428;2023-11-21T00:14:38;101308.69;;;7.29;90.16
73748;BME280;62056;52.130;5.428;2023-11-21T00:17:05;101308.41;;;7.31;90.00
73748;BME280;62056;52.130;5.428;2023-11-21T00:19:32;101305.78;;;7.31;90.24
73748;BME280;62056;52.130;5.428;2023-11-21T00:22:02;101303.94;;;7.32;89.93
73748;BME280;62056;52.130;5.428;2023-11-21T00:24:29;101309.47;;;7.30;91.12
73748;BME280;62056;52.130;5.428;2023-11-21T00:26:55;101314.47;;;7.26;90.12
73748;BME280;62056;52.130;5.428;2023-11-21T00:29:22;101312.88;;;7.25;90.81
73748;BME280;62056;52.130;5.428;2023-11-21T00:31:48;101310.72;;;7.22;90.35
73748;BME280;62056;52.130;5.428;2023-11-21T00:34:15;101316.28;;;7.21;91.48
73748;BME280;62056;52.130;5.428;2023-11-21T00:36:42;101316.53;;;7.19;91.42
73748;BME280;62056;52.130;5.428;2023-11-21T00:39:08;101309.09;;;7.16;91.16
73748;BME280;62056;52.130;5.428;2023-11-21T00:41:35;101319.94;;;7.15;91.34
73748;BME280;62056;52.130;5.428;2023-11-21T00:44:03;101317.00;;;7.11;91.45
73748;BME280;62056;52.130;5.428;2023-11-21T00:46:31;101319.41;;;7.13;91.76
73748;BME280;62056;52.130;5.428;2023-11-21T00:48:58;101319.41;;;7.13;92.22
73748;BME280;62056;52.130;5.428;2023-11-21T00:51:25;101324.13;;;7.11;91.51
73748;BME280;62056;52.130;5.428;2023-11-21T00:53:52;101331.78;;;7.12;91.46
73748;BME280;62056;52.130;5.428;2023-11-21T00:56:19;101327.56;;;7.11;91.52
73748;BME280;62056;52.130;5.428;2023-11-21T00:58:45;101324.13;;;7.11;91.39
73748;BME280;62056;52.130;5.428;2023-11-21T01:01:16;101330.69;;;7.08;91.94
73748;BME280;62056;52.130;5.428;2023-11-21T01:03:45;101341.56;;;7.06;92.06
73748;BME280;62056;52.130;5.428;2023-11-21T01:06:12;101342.81;;;7.04;90.52
73748;BME280;62056;52.130;5.428;2023-11-21T01:08:41;101344.69;;;7.03;89.44
73748;BME280;62056;52.130;5.428;2023-11-21T01:11:08;101358.97;;;7.02;89.59
73748;BME280;62056;52.130;5.428;2023-11-21T01:13:35;101357.66;;;7.05;90.62
73748;BME280;62056;52.130;5.428;2023-11-21T01:16:02;101350.53;;;7.05;91.05
73748;BME280;62056;52.130;5.428;2023-11-21T01:18:30;101357.41;;;7.06;91.09
73748;BME280;62056;52.130;5.428;2023-11-21T01:20:56;101358.44;;;7.05;91.46
73748;BME280;62056;52.130;5.428;2023-11-21T01:23:24;101356.31;;;7.02;91.87
73748;BME280;62056;52.130;5.428;2023-11-21T01:25:50;101349.19;;;7.03;92.16
73748;BME280;62056;52.130;5.428;2023-11-21T01:28:18;101349.41;;;7.01;91.97
73748;BME280;62056;52.130;5.428;2023-11-21T01:30:46;101339.91;;;7.00;92.08
73748;BME280;62056;52.130;5.428;2023-11-21T01:33:13;101348.63;;;7.01;91.59
73748;BME280;62056;52.130;5.428;2023-11-21T01:35:42;101354.47;;;7.03;91.17
73748;BME280;62056;52.130;5.428;2023-11-21T01:38:09;101362.94;;;7.05;90.70
73748;BME280;62056;52.130;5.428;2023-11-21T01:40:36;101363.19;;;7.03;90.35
73748;BME280;62056;52.130;5.428;2023-11-21T01:43:03;101357.09;;;7.03;89.99
73748;BME280;62056;52.130;5.428;2023-11-21T01:45:30;101355.81;;;7.05;90.08
73748;BME280;62056;52.130;5.428;2023-11-21T01:48:00;101360.31;;;7.05;90.04
73748;BME280;62056;52.130;5.428;2023-11-21T01:50:28;101365.59;;;7.05;89.74
73748;BME280;62056;52.130;5.428;2023-11-21T01:52:55;101369.03;;;7.05;90.28
73748;BME280;62056;52.130;5.428;2023-11-21T01:55:22;101380.16;;;7.07;90.79
73748;BME280;62056;52.130;5.428;2023-11-21T01:57:55;101371.97;;;7.09;91.74
73748;BME280;62056;52.130;5.428;2023-11-21T02:00:22;101374.63;;;7.09;90.74
73748;BME280;62056;52.130;5.428;2023-11-21T02:02:50;101375.41;;;7.09;91.32
73748;BME280;62056;52.130;5.428;2023-11-21T02:05:18;101381.25;;;7.12;91.92
73748;BME280;62056;52.130;5.428;2023-11-21T02:07:46;101387.34;;;7.12;92.62
73748;BME280;62056;52.130;5.428;2023-11-21T02:10:15;101390.25;;;7.11;91.09
73748;BME280;62056;52.130;5.428;2023-11-21T02:12:42;101395.47;;;7.05;91.46
73748;BME280;62056;52.130;5.428;2023-11-21T02:15:16;101398.13;;;7.05;92.53
73748;BME280;62056;52.130;5.428;2023-11-21T02:17:47;101403.16;;;7.07;92.57
73748;BME280;62056;52.130;5.428;2023-11-21T02:20:20;101403.72;;;7.09;93.52
73748;BME280;62056;52.130;5.428;2023-11-21T02:22:50;101404.50;;;7.09;93.18
73748;BME280;62056;52.130;5.428;2023-11-21T02:25:22;101403.47;;;7.11;92.89
73748;BME280;62056;52.130;5.428;2023-11-21T02:27:49;101405.84;;;7.12;93.84
73748;BME280;62056;52.130;5.428;2023-11-21T02:30:16;101401.38;;;7.13;92.71
73748;BME280;62056;52.130;5.428;2023-11-21T02:32:43;101403.53;;;7.16;92.88
73748;BME280;62056;52.130;5.428;2023-11-21T02:35:15;101405.69;;;7.19;93.65
73748;BME280;62056;52.130;5.428;2023-11-21T02:37:42;101415.75;;;7.22;94.36
73748;BME280;62056;52.130;5.428;2023-11-21T02:40:10;101411.53;;;7.21;92.79
73748;BME280;62056;52.130;5.428;2023-11-21T02:42:39;101421.84;;;7.22;92.29
73748;BME280;62056;52.130;5.428;2023-11-21T02:45:07;101416.31;;;7.24;92.79
73748;BME280;62056;52.130;5.428;2023-11-21T02:47:34;101421.09;;;7.27;93.73
73748;BME280;62056;52.130;5.428;2023-11-21T02:50:01;101413.69;;;7.29;93.80
73748;BME280;62056;52.130;5.428;2023-11-21T02:52:28;101414.50;;;7.29;93.34
73748;BME280;62056;52.130;5.428;2023-11-21T02:54:55;101416.88;;;7.31;93.47
73748;BME280;62056;52.130;5.428;2023-11-21T02:57:22;101416.88;;;7.31;93.85
73748;BME280;62056;52.130;5.428;2023-11-21T02:59:49;101410.81;;;7.30;93.73
73748;BME280;62056;52.130;5.428;2023-11-21T03:02:16;101413.69;;;7.29;93.81
73748;BME280;62056;52.130;5.428;2023-11-21T03:04:43;101420.84;;;7.28;93.57
73748;BME280;62056;52.130;5.428;2023-11-21T03:07:10;101415.78;;;7.27;93.59
73748;BME280;62056;52.130;5.428;2023-11-21T03:09:36;101412.91;;;7.28;94.11
73748;BME280;62056;52.130;5.428;2023-11-21T03:12:03;101418.75;;;7.30;94.95
73748;BME280;62056;52.130;5.428;2023-11-21T03:14:30;101407.91;;;7.32;93.63
73748;BME280;62056;52.130;5.428;2023-11-21T03:16:58;101416.16;;;7.36;94.80
73748;BME280;62056;52.130;5.428;2023-11-21T03:19:24;101411.66;;;7.36;94.33
73748;BME280;62056;52.130;5.428;2023-11-21T03:21:51;101414.84;;;7.38;94.72
73748;BME280;62056;52.130;5.428;2023-11-21T03:24:19;101412.75;;;7.40;95.28
73748;BME280;62056;52.130;5.428;2023-11-21T03:26:46;101419.63;;;7.41;96.37
73748;BME280;62056;52.130;5.428;2023-11-21T03:29:13;101417.81;;;7.42;95.43
73748;BME280;62056;52.130;5.428;2023-11-21T03:31:41;101409.88;;;7.42;94.82
73748;BME280;62056;52.130;5.428;2023-11-21T03:34:15;101420.19;;;7.43;94.64
73748;BME280;62056;52.130;5.428;2023-11-21T03:36:41;101419.69;;;7.46;94.07
73748;BME280;62056;52.130;5.428;2023-11-21T03:39:08;101417.06;;;7.46;93.99
73748;BME280;62056;52.130;5.428;2023-11-21T03:41:35;101425.53;;;7.48;94.95
73748;BME280;62056;52.130;5.428;2023-11-21T03:44:02;101431.63;;;7.49;94.90
73748;BME280;62056;52.130;5.428;2023-11-21T03:46:29;101426.09;;;7.50;95.11
73748;BME280;62056;52.130;5.428;2023-11-21T03:48:55;101423.19;;;7.52;95.72
73748;BME280;62056;52.130;5.428;2023-11-21T03:51:22;101426.63;;;7.53;94.91
73748;BME280;62056;52.130;5.428;2023-11-21T03:53:49;101435.13;;;7.55;96.25
73748;BME280;62056;52.130;5.428;2023-11-21T03:56:15;101433.28;;;7.55;96.88
73748;BME280;62056;52.130;5.428;2023-11-21T03:58:42;101442.00;;;7.56;96.44
73748;BME280;62056;52.130;5.428;2023-11-21T04:01:09;101442.78;;;7.56;95.93
73748;BME280;62056;52.130;5.428;2023-11-21T04:03:35;101444.41;;;7.57;95.99
73748;BME280;62056;52.130;5.428;2023-11-21T04:06:02;101453.94;;;7.58;95.82
73748;BME280;62056;52.130;5.428;2023-11-21T04:08:29;101445.44;;;7.56;95.21
73748;BME280;62056;52.130;5.428;2023-11-21T04:10:56;101456.84;;;7.57;95.70
73748;BME280;62056;52.130;5.428;2023-11-21T04:13:22;101456.84;;;7.57;95.78
73748;BME280;62056;52.130;5.428;2023-11-21T04:15:49;101464.78;;;7.57;95.93
73748;BME280;62056;52.130;5.428;2023-11-21T04:18:16;101467.44;;;7.57;96.36
73748;BME280;62056;52.130;5.428;2023-11-21T04:20:43;101472.72;;;7.57;96.43
73748;BME280;62056;52.130;5.428;2023-11-21T04:23:09;101473.53;;;7.57;97.20
73748;BME280;62056;52.130;5.428;2023-11-21T04:25:37;101478.81;;;7.57;96.90
73748;BME280;62056;52.130;5.428;2023-11-21T04:28:04;101476.16;;;7.57;96.69
73748;BME280;62056;52.130;5.428;2023-11-21T04:30:30;101476.16;;;7.57;97.00
73748;BME280;62056;52.130;5.428;2023-11-21T04:32:58;101482.25;;;7.58;95.88
73748;BME280;62056;52.130;5.428;2023-11-21T04:35:24;101489.41;;;7.57;96.60
73748;BME280;62056;52.130;5.428;2023-11-21T04:37:51;101488.34;;;7.58;96.00
73748;BME280;62056;52.130;5.428;2023-11-21T04:40:18;101497.34;;;7.57;96.05
73748;BME280;62056;52.130;5.428;2023-11-21T04:42:47;101500.00;;;7.57;96.31
73748;BME280;62056;52.130;5.428;2023-11-21T04:45:14;101503.69;;;7.56;95.74
73748;BME280;62056;52.130;5.428;2023-11-21T04:47:42;101507.13;;;7.57;96.31
73748;BME280;62056;52.130;5.428;2023-11-21T04:50:10;101506.88;;;7.58;96.92
73748;BME280;62056;52.130;5.428;2023-11-21T04:52:37;101506.88;;;7.58;97.17
73748;BME280;62056;52.130;5.428;2023-11-21T04:55:04;101503.97;;;7.60;98.16
73748;BME280;62056;52.130;5.428;2023-11-21T04:57:33;101506.38;;;7.61;97.70
73748;BME280;62056;52.130;5.428;2023-11-21T05:00:00;101500.03;;;7.62;98.43
73748;BME280;62056;52.130;5.428;2023-11-21T05:02:26;101496.34;;;7.63;97.53
73748;BME280;62056;52.130;5.428;2023-11-21T05:05:04;101506.69;;;7.65;97.96
73748;BME280;62056;52.130;5.428;2023-11-21T05:07:33;101505.88;;;7.64;97.63
73748;BME280;62056;52.130;5.428;2023-11-21T05:10:04;101522.31;;;7.66;97.97
73748;BME280;62056;52.130;5.428;2023-11-21T05:12:34;101526.56;;;7.67;98.09
73748;BME280;62056;52.130;5.428;2023-11-21T05:15:04;101518.63;;;7.67;97.62
73748;BME280;62056;52.130;5.428;2023-11-21T05:17:38;101526.56;;;7.67;97.40
73748;BME280;62056;52.130;5.428;2023-11-21T05:20:10;101524.47;;;7.69;97.77
73748;BME280;62056;52.130;5.428;2023-11-21T05:22:37;101531.63;;;7.69;97.43
73748;BME280;62056;52.130;5.428;2023-11-21T05:25:05;101535.06;;;7.69;98.14
73748;BME280;62056;52.130;5.428;2023-11-21T05:27:32;101531.34;;;7.70;97.74
73748;BME280;62056;52.130;5.428;2023-11-21T05:29:59;101527.13;;;7.69;98.38
73748;BME280;62056;52.130;5.428;2023-11-21T05:32:26;101530.31;;;7.72;98.46
73748;BME280;62056;52.130;5.428;2023-11-21T05:34:53;101531.09;;;7.72;98.52
73748;BME280;62056;52.130;5.428;2023-11-21T05:37:20;101540.66;;;7.73;98.33
73748;BME280;62056;52.130;5.428;2023-11-21T05:39:46;101546.75;;;7.74;98.81
73748;BME280;62056;52.130;5.428;2023-11-21T05:42:13;101546.75;;;7.74;98.73
73748;BME280;62056;52.130;5.428;2023-11-21T05:44:41;101546.50;;;7.75;98.66
73748;BME280;62056;52.130;5.428;2023-11-21T05:47:09;101551.53;;;7.77;99.53
73748;BME280;62056;52.130;5.428;2023-11-21T05:49:36;101548.88;;;7.77;99.28
73748;BME280;62056;52.130;5.428;2023-11-21T05:52:03;101554.72;;;7.79;99.38
73748;BME280;62056;52.130;5.428;2023-11-21T05:54:32;101560.84;;;7.79;99.77
73748;BME280;62056;52.130;5.428;2023-11-21T05:56:59;101559.00;;;7.80;99.69
73748;BME280;62056;52.130;5.428;2023-11-21T05:59:26;101567.50;;;7.82;100.00
73748;BME280;62056;52.130;5.428;2023-11-21T06:01:52;101572.00;;;7.81;99.52
73748;BME280;62056;52.130;5.428;2023-11-21T06:04:20;101570.13;;;7.82;99.74
73748;BME280;62056;52.130;5.428;2023-11-21T06:06:51;101578.63;;;7.84;100.00
73748;BME280;62056;52.130;5.428;2023-11-21T06:09:19;101571.47;;;7.84;99.98
73748;BME280;62056;52.130;5.428;2023-11-21T06:11:46;101587.13;;;7.86;99.95
73748;BME280;62056;52.130;5.428;2023-11-21T06:14:12;101592.44;;;7.86;100.00
73748;BME280;62056;52.130;5.428;2023-11-21T06:16:39;101589.53;;;7.87;99.67
73748;BME280;62056;52.130;5.428;2023-11-21T06:19:07;101590.34;;;7.88;100.00
73748;BME280;62056;52.130;5.428;2023-11-21T06:21:33;101590.88;;;7.90;100.00
73748;BME280;62056;52.130;5.428;2023-11-21T06:24:00;101598.81;;;7.90;99.69
73748;BME280;62056;52.130;5.428;2023-11-21T06:26:27;101595.91;;;7.91;99.88
73748;BME280;62056;52.130;5.428;2023-11-21T06:28:54;101599.09;;;7.94;99.24
73748;BME280;62056;52.130;5.428;2023-11-21T06:31:21;101598.88;;;7.95;99.83
73748;BME280;62056;52.130;5.428;2023-11-21T06:33:48;101599.41;;;7.97;100.00
73748;BME280;62056;52.130;5.428;2023-11-21T06:36:16;101605.50;;;7.98;100.00
73748;BME280;62056;52.130;5.428;2023-11-21T06:38:42;101605.25;;;7.99;100.00
73748;BME280;62056;52.130;5.428;2023-11-21T06:41:09;101608.47;;;8.01;100.00
73748;BME280;62056;52.130;5.428;2023-11-21T06:43:36;101607.66;;;8.01;100.00
73748;BME280;62056;52.130;5.428;2023-11-21T06:46:03;101616.16;;;8.03;100.00
73748;BME280;62056;52.130;5.428;2023-11-21T06:48:31;101619.59;;;8.03;100.00
73748;BME280;62056;52.130;5.428;2023-11-21T06:50:57;101619.38;;;8.05;100.00
73748;BME280;62056;52.130;5.428;2023-11-21T06:53:24;101621.78;;;8.06;100.00
73748;BME280;62056;52.130;5.428;2023-11-21T06:55:51;101624.97;;;8.08;100.00
73748;BME280;62056;52.130;5.428;2023-11-21T06:58:19;101619.91;;;8.07;100.00
73748;BME280;62056;52.130;5.428;2023-11-21T07:00:46;101628.72;;;8.13;100.00
73748;BME280;62056;52.130;5.428;2023-11-21T07:03:15;101625.81;;;8.14;100.00
73748;BME280;62056;52.130;5.428;2023-11-21T07:05:41;101641.47;;;8.16;99.85
73748;BME280;62056;52.130;5.428;2023-11-21T07:08:08;101643.63;;;8.19;99.79
73748;BME280;62056;52.130;5.428;2023-11-21T07:10:35;101643.91;;;8.22;100.00
73748;BME280;62056;52.130;5.428;2023-11-21T07:13:03;101647.91;;;8.25;100.00
73748;BME280;62056;52.130;5.428;2023-11-21T07:15:29;101656.94;;;8.29;100.00
73748;BME280;62056;52.130;5.428;2023-11-21T07:17:56;101655.13;;;8.29;100.00
73748;BME280;62056;52.130;5.428;2023-11-21T07:20:23;101665.75;;;8.35;100.00
73748;BME280;62056;52.130;5.428;2023-11-21T07:22:50;101669.19;;;8.35;100.00
73748;BME280;62056;52.130;5.428;2023-11-21T07:25:16;101667.91;;;8.38;100.00
73748;BME280;62056;52.130;5.428;2023-11-21T07:27:43;101674.56;;;8.40;100.00
73748;BME280;62056;52.130;5.428;2023-11-21T07:30:11;101678.09;;;8.46;100.00
73748;BME280;62056;52.130;5.428;2023-11-21T07:32:38;101680.00;;;8.50;100.00
73748;BME280;62056;52.130;5.428;2023-11-21T07:35:07;101682.63;;;8.50;100.00
73748;BME280;62056;52.130;5.428;2023-11-21T07:37:34;101677.38;;;8.56;100.00
73748;BME280;62056;52.130;5.428;2023-11-21T07:40:01;101682.22;;;8.64;100.00
73748;BME280;62056;52.130;5.428;2023-11-21T07:42:29;101666.09;;;8.70;100.00
73748;BME280;62056;52.130;5.428;2023-11-21T07:44:55;101676.78;;;8.81;100.00
73748;BME280;62056;52.130;5.428;2023-11-21T07:47:22;101683.47;;;8.88;100.00
73748;BME280;62056;52.130;5.428;2023-11-21T07:49:54;101690.97;;;8.97;100.00
73748;BME280;62056;52.130;5.428;2023-11-21T07:52:22;101697.41;;;9.06;100.00
73748;BME280;62056;52.130;5.428;2023-11-21T07:54:49;101701.19;;;9.15;100.00
73748;BME280;62056;52.130;5.428;2023-11-21T07:57:17;101703.38;;;9.23;100.00
73748;BME280;62056;52.130;5.428;2023-11-21T07:59:43;101704.47;;;9.32;100.00
73748;BME280;62056;52.130;5.428;2023-11-21T08:02:11;101709.31;;;9.41;100.00
73748;BME280;62056;52.130;5.428;2023-11-21T08:04:38;101710.69;;;9.48;100.00
73748;BME280;62056;52.130;5.428;2023-11-21T08:07:05;101717.34;;;9.56;100.00
73748;BME280;62056;52.130;5.428;2023-11-21T08:09:31;101726.69;;;9.64;100.00
73748;BME280;62056;52.130;5.428;2023-11-21T08:11:59;101726.44;;;9.70;100.00
73748;BME280;62056;52.130;5.428;2023-11-21T08:14:27;101726.25;;;9.77;100.00
73748;BME280;62056;52.130;5.428;2023-11-21T08:16:53;101742.72;;;9.84;100.00
73748;BME280;62056;52.130;5.428;2023-11-21T08:19:24;101748.06;;;9.89;100.00
73748;BME280;62056;52.130;5.428;2023-11-21T08:21:54;101755.81;;;9.96;100.00
73748;BME280;62056;52.130;5.428;2023-11-21T08:24:21;101752.13;;;10.02;100.00
73748;BME280;62056;52.130;5.428;2023-11-21T08:26:48;101759.84;;;10.09;100.00
73748;BME280;62056;52.130;5.428;2023-11-21T08:29:16;101761.72;;;10.13;100.00
73748;BME280;62056;52.130;5.428;2023-11-21T08:31:43;101767.03;;;10.19;100.00
73748;BME280;62056;52.130;5.428;2023-11-21T08:34:11;101775.03;;;10.24;100.00
73748;BME280;62056;52.130;5.428;2023-11-21T08:36:41;101779.03;;;10.26;100.00
73748;BME280;62056;52.130;5.428;2023-11-21T08:39:08;101791.56;;;10.31;100.00
73748;BME280;62056;52.130;5.428;2023-11-21T08:41:36;101795.84;;;10.32;100.00
73748;BME280;62056;52.130;5.428;2023-11-21T08:44:03;101798.50;;;10.37;100.00
73748;BME280;62056;52.130;5.428;2023-11-21T08:46:33;101800.66;;;10.40;100.00
73748;BME280;62056;52.130;5.428;2023-11-21T08:49:01;101800.94;;;10.44;100.00
73748;BME280;62056;52.130;5.428;2023-11-21T08:51:28;101802.03;;;10.48;100.00
73748;BME280;62056;52.130;5.428;2023-11-21T08:53:54;101811.03;;;10.52;100.00
73748;BME280;62056;52.130;5.428;2023-11-21T08:56:26;101810.78;;;10.53;100.00
73748;BME280;62056;52.130;5.428;2023-11-21T08:58:52;101812.41;;;10.55;100.00
73748;BME280;62056;52.130;5.428;2023-11-21T09:01:20;101808.97;;;10.59;100.00
73748;BME280;62056;52.130;5.428;2023-11-21T09:03:47;101804.47;;;10.65;100.00
73748;BME280;62056;52.130;5.428;2023-11-21T09:06:16;101811.38;;;10.71;100.00
73748;BME280;62056;52.130;5.428;2023-11-21T09:08:44;101819.38;;;10.76;100.00
73748;BME280;62056;52.130;5.428;2023-11-21T09:11:11;101832.66;;;10.76;100.00
73748;BME280;62056;52.130;5.428;2023-11-21T09:13:41;101841.47;;;10.82;100.00
73748;BME280;62056;52.130;5.428;2023-11-21T09:16:09;101846.78;;;10.87;100.00
73748;BME280;62056;52.130;5.428;2023-11-21T09:18:45;101850.25;;;10.92;100.00
73748;BME280;62056;52.130;5.428;2023-11-21T09:21:16;101846.03;;;10.97;100.00
73748;BME280;62056;52.130;5.428;2023-11-21T09:23:50;101848.97;;;11.00;100.00
73748;BME280;62056;52.130;5.428;2023-11-21T09:26:16;101851.34;;;11.02;100.00
73748;BME280;62056;52.130;5.428;2023-11-21T09:28:44;101866.78;;;11.05;100.00
73748;BME280;62056;52.130;5.428;2023-11-21T09:31:14;101862.53;;;11.04;100.00
73748;BME280;62056;52.130;5.428;2023-11-21T09:33:43;101870.00;;;11.07;100.00
73748;BME280;62056;52.130;5.428;2023-11-21T09:36:13;101867.59;;;11.10;100.00
73748;BME280;62056;52.130;5.428;2023-11-21T09:38:41;101875.59;;;11.16;100.00
73748;BME280;62056;52.130;5.428;2023-11-21T09:41:19;101885.69;;;11.13;100.00
73748;BME280;62056;52.130;5.428;2023-11-21T09:43:52;101891.28;;;11.12;100.00
73748;BME280;62056;52.130;5.428;2023-11-21T09:46:23;101888.09;;;11.10;100.00
73748;BME280;62056;52.130;5.428;2023-11-21T09:48:50;101888.59;;;11.02;100.00
73748;BME280;62056;52.130;5.428;2023-11-21T09:51:24;101903.75;;;10.91;100.00
73748;BME280;62056;52.130;5.428;2023-11-21T09:53:57;101912.78;;;10.85;100.00
73748;BME280;62056;52.130;5.428;2023-11-21T09:56:25;101911.72;;;10.86;100.00
73748;BME280;62056;52.130;5.428;2023-11-21T09:58:53;101917.06;;;10.86;100.00
73748;BME280;62056;52.130;5.428;2023-11-21T10:01:21;101912.28;;;10.88;100.00
73748;BME280;62056;52.130;5.428;2023-11-21T10:03:49;101914.66;;;10.89;100.00
73748;BME280;62056;52.130;5.428;2023-11-21T10:06:17;101917.84;;;10.86;100.00
73748;BME280;62056;52.130;5.428;2023-11-21T10:08:45;101922.38;;;10.86;100.00
73748;BME280;62056;52.130;5.428;2023-11-21T10:11:25;101923.97;;;10.87;100.00
73748;BME280;62056;52.130;5.428;2023-11-21T10:13:54;101923.41;;;10.85;100.00
73748;BME280;62056;52.130;5.428;2023-11-21T10:16:26;101934.88;;;10.90;100.00
73748;BME280;62056;52.130;5.428;2023-11-21T10:18:54;101941.53;;;10.88;100.00
73748;BME280;62056;52.130;5.428;2023-11-21T10:21:38;101945.28;;;10.92;100.00
73748;BME280;62056;52.130;5.428;2023-11-21T10:24:06;101949.81;;;10.97;100.00
73748;BME280;62056;52.130;5.428;2023-11-21T10:26:33;101955.97;;;11.02;100.00
73748;BME280;62056;52.130;5.428;2023-11-21T10:29:16;101958.88;;;11.01;100.00
73748;BME280;62056;52.130;5.428;2023-11-21T10:31:43;101960.47;;;11.02;100.00
73748;BME280;62056;52.130;5.428;2023-11-21T10:36:39;101964.78;;;11.13;100.00
73748;BME280;62056;52.130;5.428;2023-11-21T10:39:06;101966.34;;;11.09;100.00
73748;BME280;62056;52.130;5.428;2023-11-21T10:41:33;101980.47;;;11.04;100.00
73748;BME280;62056;52.130;5.428;2023-11-21T10:44:02;101981.22;;;11.00;100.00
73748;BME280;62056;52.130;5.428;2023-11-21T10:46:33;101987.31;;;10.95;100.00
73748;BME280;62056;52.130;5.428;2023-11-21T10:49:01;102003.84;;;10.92;100.00
73748;BME280;62056;52.130;5.428;2023-11-21T10:51:28;102001.66;;;10.89;100.00
73748;BME280;62056;52.130;5.428;2023-11-21T10:53:55;102011.28;;;10.90;100.00
73748;BME280;62056;52.130;5.428;2023-11-21T10:56:23;102013.16;;;10.94;100.00
73748;BME280;62056;52.130;5.428;2023-11-21T10:58:52;102010.50;;;10.94;100.00
73748;BME280;62056;52.130;5.428;2023-11-21T11:01:22;102015.81;;;10.94;100.00
73748;BME280;62056;52.130;5.428;2023-11-21T11:03:52;102020.59;;;10.98;100.00
73748;BME280;62056;52.130;5.428;2023-11-21T11:06:21;102021.97;;;11.05;100.00
73748;BME280;62056;52.130;5.428;2023-11-21T11:08:51;102023.78;;;10.94;100.00
73748;BME280;62056;52.130;5.428;2023-11-21T11:11:18;102025.38;;;10.96;100.00
73748;BME280;62056;52.130;5.428;2023-11-21T11:13:47;102020.34;;;10.94;100.00
73748;BME280;62056;52.130;5.428;2023-11-21T11:16:15;102022.22;;;10.99;100.00
73748;BME280;62056;52.130;5.428;2023-11-21T11:18:44;102011.28;;;10.95;100.00
73748;BME280;62056;52.130;5.428;2023-11-21T11:24:28;102019.31;;;11.05;100.00
73748;BME280;62056;52.130;5.428;2023-11-21T11:30:11;102028.28;;;10.89;98.72
73748;BME280;62056;52.130;5.428;2023-11-21T11:32:53;102037.09;;;11.00;100.00
73748;BME280;62056;52.130;5.428;2023-11-21T11:37:55;102035.28;;;11.00;100.00
73748;BME280;62056;52.130;5.428;2023-11-21T11:40:22;102037.41;;;11.03;100.00
73748;BME280;62056;52.130;5.428;2023-11-21T11:43:01;102036.34;;;11.04;99.63
73748;BME280;62056;52.130;5.428;2023-11-21T11:45:34;102044.06;;;11.06;99.92
73748;BME280;62056;52.130;5.428;2023-11-21T11:48:11;102041.63;;;10.99;98.80
73748;BME280;62056;52.130;5.428;2023-11-21T11:51:09;102047.75;;;11.00;99.46
73748;BME280;62056;52.130;5.428;2023-11-21T11:53:44;102051.75;;;10.97;99.84
73748;BME280;62056;52.130;5.428;2023-11-21T11:56:21;102056.03;;;11.03;100.00
73748;BME280;62056;52.130;5.428;2023-11-21T11:58:53;102059.22;;;11.00;99.83
73748;BME280;62056;52.130;5.428;2023-11-21T12:01:21;102061.59;;;11.02;99.50
73748;BME280;62056;52.130;5.428;2023-11-21T12:06:41;102067.47;;;11.04;99.82
73748;BME280;62056;52.130;5.428;2023-11-21T12:09:18;102077.63;;;11.07;99.50
73748;BME280;62056;52.130;5.428;2023-11-21T12:11:46;102078.66;;;11.06;99.29
73748;BME280;62056;52.130;5.428;2023-11-21T12:14:14;102075.78;;;11.12;99.36
73748;BME280;62056;52.130;5.428;2023-11-21T12:16:41;102080.59;;;11.16;99.55
73748;BME280;62056;52.130;5.428;2023-11-21T12:19:12;102082.44;;;11.15;99.77
73748;BME280;62056;52.130;5.428;2023-11-21T12:21:39;102084.31;;;11.14;99.43
73748;BME280;62056;52.130;5.428;2023-11-21T12:24:11;102081.91;;;11.18;99.06
73748;BME280;62056;52.130;5.428;2023-11-21T12:26:42;102089.94;;;11.23;99.73
73748;BME280;62056;52.130;5.428;2023-11-21T12:29:09;102090.75;;;11.24;99.52
73748;BME280;62056;52.130;5.428;2023-11-21T12:31:37;102083.81;;;11.23;98.69
73748;BME280;62056;52.130;5.428;2023-11-21T12:34:04;102087.53;;;11.22;98.69
73748;BME280;62056;52.130;5.428;2023-11-21T12:36:34;102085.66;;;11.22;97.84
73748;BME280;62056;52.130;5.428;2023-11-21T12:39:02;102094.50;;;11.28;99.76
73748;BME280;62056;52.130;5.428;2023-11-21T12:41:29;102094.44;;;11.23;99.08
73748;BME280;62056;52.130;5.428;2023-11-21T12:43:57;102106.44;;;11.20;98.03
73748;BME280;62056;52.130;5.428;2023-11-21T12:46:24;102093.66;;;11.22;98.73
73748;BME280;62056;52.130;5.428;2023-11-21T12:48:54;102109.91;;;11.26;99.01
73748;BME280;62056;52.130;5.428;2023-11-21T12:51:23;102101.66;;;11.22;98.69
73748;BME280;62056;52.130;5.428;2023-11-21T12:53:50;102105.94;;;11.23;98.67
73748;BME280;62056;52.130;5.428;2023-11-21T12:56:17;102116.56;;;11.23;97.92
73748;BME280;62056;52.130;5.428;2023-11-21T12:58:45;102123.22;;;11.26;98.31
73748;BME280;62056;52.130;5.428;2023-11-21T13:01:14;102120.56;;;11.26;99.16
73748;BME280;62056;52.130;5.428;2023-11-21T13:03:48;102124.28;;;11.25;97.94
73748;BME280;62056;52.130;5.428;2023-11-21T13:06:18;102125.34;;;11.24;98.08
73748;BME280;62056;52.130;5.428;2023-11-21T13:08:47;102131.47;;;11.24;98.27
73748;BME280;62056;52.130;5.428;2023-11-21T13:11:14;102133.63;;;11.27;99.54
73748;BME280;62056;52.130;5.428;2023-11-21T13:13:42;102137.09;;;11.28;99.30